West Farmington, Ohio
Current Conditions -  °F | °C
As of 4:51 AM on Friday 31 Oct 2014 (Local Time) from KYNG Reporting Station
Overcast Overcast  
Wind Chill:   Ceiling: 4800
Heat Index:   Visibility: 10mi
Dew Point:   Wind: 5mph
Humidity: 80%   Direction: 160°SSE
Pressure: 29.97"   Gusts: NA
Location:  41.39°N, 80.97°W
Report Text: KYNG 310851Z 16004KT 10SM FEW030 OVC048 06/03 A2997 RMK AO2 SLP153 T00610028 56014 $
Loading
Personal Weather Stations






























Interactive Weather Map
Tropical Storm Tracking
New forecast layout! Learn more

10-Day Weather Forecast

Advertisements
Track Severe Weather on mobile